Vanscoy, Canada
Current Conditions -  °F | °C
As of 12:27 PM on Thursday 27 Nov 2014 (Local Time) from CYXE Reporting Station
Light Snow Light Snow  
Wind Chill: -9°   Ceiling: 500
Heat Index:   Visibility: 1.5mi
Dew Point:   Wind: 16mph
Humidity: 92%   Direction: 50°NE
Pressure: 30.05"   Gusts: NA
Location:  52°N, 106.98°W
Report Text: CYXE 271827Z 05014KT 1 1/2SM -SN DRSN OVC005 M13/M14 A3005 RMK SN4SC4 SLP221
Loading
Personal Weather Stations






























Interactive Weather Map New forecast layout! Learn more

10-Day Weather Forecast

Advertisements
Track Severe Weather on mobile